Time;durP1;ratioP1;P1;durP2;ratioP2;P2;SDS_P1;SDS_P2;PMS_P1;PMS_P2;Temp;Humidity;BMP_temperature;BMP_pressure;BME280_temperature;BME280_humidity;BME280_pressure;Samples;Min_cycle;Max_cycle;Signal;HPM_P1;HPM_P2
2023/07/07 00:00:56;;;;;;;5.10;4.07;;;21.70;99.90;;;;;;5093575;28;20066;-63
2023/07/07 00:03:22;;;;;;;5.55;3.67;;;21.60;99.90;;;;;;5092876;28;20085;-64
2023/07/07 00:05:48;;;;;;;5.05;3.78;;;21.50;99.90;;;;;;5093491;28;20142;-62
2023/07/07 00:08:14;;;;;;;6.72;3.90;;;21.40;99.90;;;;;;5093462;28;20413;-64
2023/07/07 00:10:42;;;;;;;7.10;3.85;;;21.40;99.90;;;;;;5092789;28;20039;-63
2023/07/07 00:13:10;;;;;;;6.65;3.70;;;21.40;99.90;;;;;;5092847;28;20020;-64
2023/07/07 00:15:35;;;;;;;4.10;3.03;;;21.50;99.90;;;;;;5092911;28;20032;-64
2023/07/07 00:18:01;;;;;;;6.30;3.60;;;21.40;99.90;;;;;;5093062;28;20504;-64
2023/07/07 00:20:27;;;;;;;6.38;3.75;;;21.30;99.90;;;;;;5093189;28;20448;-64
2023/07/07 00:22:55;;;;;;;6.43;3.78;;;21.30;99.90;;;;;;5092889;28;20067;-64
2023/07/07 00:25:21;;;;;;;4.63;3.60;;;21.20;99.90;;;;;;5091295;28;20027;-63
2023/07/07 00:27:47;;;;;;;6.85;3.80;;;21.00;99.90;;;;;;5092537;28;20040;-64
2023/07/07 00:30:13;;;;;;;7.25;3.63;;;21.00;99.90;;;;;;5093168;28;20368;-64
2023/07/07 00:32:39;;;;;;;9.05;3.83;;;21.00;99.90;;;;;;5092914;28;20043;-64
2023/07/07 00:35:05;;;;;;;5.32;3.72;;;21.10;99.90;;;;;;5092495;28;20032;-64
2023/07/07 00:37:31;;;;;;;5.32;3.55;;;21.40;99.90;;;;;;5092400;28;20490;-63
2023/07/07 00:39:56;;;;;;;6.13;3.58;;;21.40;99.90;;;;;;5092815;28;20024;-64
2023/07/07 00:42:22;;;;;;;7.43;3.42;;;21.40;99.90;;;;;;5092612;28;20020;-63
2023/07/07 00:45:20;;;;;;;5.80;3.70;;;21.40;99.90;;;;;;5091926;28;20051;-63
2023/07/07 00:47:49;;;;;;;5.72;3.65;;;21.40;99.90;;;;;;5092524;28;20081;-62
2023/07/07 00:50:16;;;;;;;5.90;3.80;;;21.30;99.90;;;;;;5092505;28;20027;-63
2023/07/07 00:52:44;;;;;;;5.07;3.80;;;21.40;99.90;;;;;;5092299;28;20024;-62
2023/07/07 00:55:17;;;;;;;4.50;3.33;;;21.50;99.90;;;;;;5091603;28;20040;-62
2023/07/07 00:57:43;;;;;;;7.90;3.33;;;21.60;99.90;;;;;;5092470;28;20024;-64
2023/07/07 01:00:11;;;;;;;5.72;3.45;;;21.60;99.90;;;;;;5092091;28;20081;-64
2023/07/07 01:02:37;;;;;;;7.15;3.72;;;21.60;99.90;;;;;;5091885;28;20028;-64
2023/07/07 01:05:05;;;;;;;5.57;3.00;;;21.60;99.90;;;;;;5092433;28;20044;-63
2023/07/07 01:07:37;;;;;;;4.95;3.22;;;21.50;99.90;;;;;;5091937;28;20040;-63
2023/07/07 01:10:03;;;;;;;7.55;3.80;;;21.40;99.90;;;;;;5091896;28;20444;-64
2023/07/07 01:12:29;;;;;;;4.82;3.40;;;21.20;99.90;;;;;;5091900;28;20032;-64
2023/07/07 01:14:55;;;;;;;6.55;3.75;;;21.10;99.90;;;;;;5091331;28;20360;-64
2023/07/07 01:17:41;;;;;;;6.82;3.80;;;21.00;99.90;;;;;;5091752;28;20095;-64
2023/07/07 01:20:31;;;;;;;6.10;3.72;;;21.00;99.90;;;;;;5091998;28;20727;-65
2023/07/07 01:23:37;;;;;;;8.07;3.38;;;21.00;99.90;;;;;;5091526;28;20059;-64
2023/07/07 01:26:22;;;;;;;5.43;3.30;;;20.90;99.90;;;;;;5091398;28;20067;-64
2023/07/07 01:29:09;;;;;;;5.85;3.38;;;20.80;99.90;;;;;;5091809;28;20425;-64
2023/07/07 01:31:51;;;;;;;6.50;3.20;;;20.80;99.90;;;;;;5091992;28;20027;-63
2023/07/07 01:34:18;;;;;;;8.05;3.50;;;20.70;99.90;;;;;;5091859;28;20035;-64
2023/07/07 01:36:43;;;;;;;6.88;3.60;;;20.60;99.90;;;;;;5091521;28;20039;-62
2023/07/07 01:39:12;;;;;;;5.93;4.00;;;20.60;99.90;;;;;;5090995;28;20024;-65
2023/07/07 01:41:47;;;;;;;5.30;4.15;;;20.50;99.90;;;;;;5091429;28;20524;-65
2023/07/07 01:44:25;;;;;;;6.72;3.40;;;20.50;99.90;;;;;;5091174;28;20024;-64
2023/07/07 01:46:54;;;;;;;5.97;3.85;;;20.40;99.90;;;;;;5091531;28;20114;-62
2023/07/07 01:49:41;;;;;;;5.35;3.50;;;20.30;99.90;;;;;;5091954;28;20024;-64
2023/07/07 01:52:15;;;;;;;6.47;3.70;;;20.30;99.90;;;;;;5090989;28;20036;-63
2023/07/07 01:54:46;;;;;;;6.75;3.60;;;20.50;99.90;;;;;;5070859;28;20039;-63
2023/07/07 01:57:13;;;;;;;7.88;3.55;;;20.60;99.90;;;;;;5071446;28;20029;-63
2023/07/07 01:59:41;;;;;;;5.15;3.70;;;20.60;99.90;;;;;;5081034;28;20043;-64
2023/07/07 02:02:08;;;;;;;7.80;3.60;;;20.60;99.90;;;;;;5091338;28;20550;-64
2023/07/07 02:04:34;;;;;;;4.90;3.58;;;20.60;99.90;;;;;;5090056;28;20032;-64
2023/07/07 02:06:59;;;;;;;5.72;3.88;;;20.60;99.90;;;;;;5091043;28;20020;-64
2023/07/07 02:09:26;;;;;;;5.55;3.75;;;20.50;99.90;;;;;;5090033;28;20083;-64
2023/07/07 02:11:52;;;;;;;5.45;3.60;;;20.50;99.90;;;;;;5090985;28;20055;-64
2023/07/07 02:14:18;;;;;;;7.78;3.70;;;20.50;99.90;;;;;;5091090;28;20062;-64
2023/07/07 02:16:44;;;;;;;5.93;3.40;;;20.50;99.90;;;;;;5090626;28;20028;-63
2023/07/07 02:19:09;;;;;;;8.23;3.63;;;20.40;99.90;;;;;;5090851;28;20024;-64
2023/07/07 02:21:35;;;;;;;5.15;3.60;;;20.40;99.90;;;;;;5090893;28;20032;-64
2023/07/07 02:24:01;;;;;;;6.82;3.75;;;20.30;99.90;;;;;;5090817;28;20047;-64
2023/07/07 02:26:27;;;;;;;6.18;3.90;;;20.20;99.90;;;;;;5093194;28;20020;-64
2023/07/07 02:28:52;;;;;;;7.05;4.13;;;20.00;99.90;;;;;;5095340;28;20592;-65
2023/07/07 02:31:18;;;;;;;7.28;3.70;;;19.90;99.90;;;;;;5095128;28;20394;-65
2023/07/07 02:33:44;;;;;;;4.15;3.55;;;19.80;99.90;;;;;;5094937;28;20032;-64
2023/07/07 02:36:11;;;;;;;5.30;3.83;;;19.70;99.90;;;;;;5095050;28;20027;-64
2023/07/07 02:38:37;;;;;;;6.20;3.92;;;19.60;99.90;;;;;;5094805;28;20051;-64
2023/07/07 02:41:03;;;;;;;5.15;3.58;;;19.60;99.90;;;;;;5094784;28;20399;-63
2023/07/07 02:43:29;;;;;;;6.20;4.15;;;19.70;99.90;;;;;;5094757;28;20028;-64
2023/07/07 02:45:56;;;;;;;5.18;3.95;;;19.50;99.90;;;;;;5095107;28;20624;-64
2023/07/07 02:48:22;;;;;;;5.25;4.10;;;19.50;99.90;;;;;;5094805;28;20123;-64
2023/07/07 02:50:59;;;;;;;5.80;4.00;;;19.50;99.90;;;;;;5093939;28;20494;-64
2023/07/07 02:53:36;;;;;;;6.28;4.45;;;19.40;99.90;;;;;;5093836;28;20489;-64
2023/07/07 02:56:03;;;;;;;8.20;4.32;;;19.40;99.90;;;;;;5094296;28;20395;-64
2023/07/07 02:58:29;;;;;;;6.05;4.57;;;19.40;99.90;;;;;;5094261;28;20394;-64
2023/07/07 03:01:09;;;;;;;7.82;4.75;;;19.40;99.90;;;;;;5094768;28;20020;-62
2023/07/07 03:03:36;;;;;;;8.07;4.65;;;19.40;99.90;;;;;;5094439;28;20522;-63
2023/07/07 03:06:08;;;;;;;6.68;4.22;;;19.40;99.90;;;;;;5094476;28;20127;-63
2023/07/07 03:08:35;;;;;;;7.78;4.50;;;19.30;99.90;;;;;;5094439;28;20578;-62
2023/07/07 03:11:09;;;;;;;7.65;4.90;;;19.40;99.90;;;;;;5093815;28;20547;-63
2023/07/07 03:13:35;;;;;;;9.00;4.40;;;19.40;99.90;;;;;;5094395;28;20109;-64
2023/07/07 03:16:14;;;;;;;7.00;4.57;;;19.50;99.90;;;;;;5094418;28;20035;-64
2023/07/07 03:18:40;;;;;;;5.88;4.68;;;19.50;99.90;;;;;;5093951;28;20035;-64
2023/07/07 03:21:07;;;;;;;7.15;4.55;;;19.60;99.90;;;;;;5093888;28;20028;-64
2023/07/07 03:23:33;;;;;;;7.60;5.03;;;19.60;99.90;;;;;;5092814;28;20426;-64
2023/07/07 03:26:09;;;;;;;6.38;4.55;;;19.50;99.90;;;;;;5093943;28;20039;-63
2023/07/07 03:28:35;;;;;;;8.27;5.03;;;19.40;99.90;;;;;;5094121;28;20044;-64
2023/07/07 03:31:15;;;;;;;8.00;5.00;;;19.40;99.90;;;;;;5094117;28;20020;-64
2023/07/07 03:33:44;;;;;;;8.20;4.90;;;19.40;99.90;;;;;;5093614;28;20047;-64
2023/07/07 03:36:12;;;;;;;7.40;4.72;;;19.40;99.90;;;;;;5093345;28;20028;-63
2023/07/07 03:38:39;;;;;;;7.90;4.85;;;19.40;99.90;;;;;;5093558;28;20024;-64
2023/07/07 03:41:08;;;;;;;7.78;4.90;;;19.30;99.90;;;;;;5092620;28;20102;-65
2023/07/07 03:43:35;;;;;;;5.95;5.05;;;19.10;99.90;;;;;;5094255;28;20132;-64
2023/07/07 03:46:01;;;;;;;6.88;4.78;;;19.00;99.90;;;;;;5093947;28;20123;-64
2023/07/07 03:48:27;;;;;;;7.68;5.30;;;19.00;99.90;;;;;;5093472;28;20409;-63
2023/07/07 03:51:01;;;;;;;6.72;4.80;;;19.00;99.90;;;;;;5093482;28;20038;-64
2023/07/07 03:53:30;;;;;;;5.70;5.00;;;18.90;99.90;;;;;;5093917;28;20031;-64
2023/07/07 03:55:55;;;;;;;7.80;5.45;;;18.80;99.90;;;;;;5093439;28;20035;-65
2023/07/07 03:58:23;;;;;;;7.63;5.18;;;18.70;99.90;;;;;;5093267;28;20032;-64
2023/07/07 04:00:49;;;;;;;5.88;5.00;;;18.60;99.90;;;;;;5093227;28;20391;-64
2023/07/07 04:03:16;;;;;;;8.27;5.07;;;18.60;99.90;;;;;;5092800;28;20032;-63
2023/07/07 04:05:46;;;;;;;6.70;5.45;;;18.60;99.90;;;;;;5093798;28;20035;-64
2023/07/07 04:08:13;;;;;;;8.75;5.20;;;18.60;99.90;;;;;;5092908;28;20048;-63
2023/07/07 04:10:40;;;;;;;8.15;5.32;;;18.60;99.90;;;;;;5093263;28;20445;-64
2023/07/07 04:13:07;;;;;;;8.48;5.57;;;18.50;99.90;;;;;;5092941;28;20024;-65
2023/07/07 04:15:33;;;;;;;7.03;4.47;;;18.50;99.90;;;;;;5093063;28;20028;-64
2023/07/07 04:17:59;;;;;;;7.07;5.45;;;18.60;99.90;;;;;;5092481;28;20028;-64
2023/07/07 04:20:25;;;;;;;7.65;4.80;;;18.70;99.90;;;;;;5093176;28;20034;-64
2023/07/07 04:22:51;;;;;;;7.20;4.90;;;18.80;99.90;;;;;;5093211;28;20055;-64
2023/07/07 04:25:17;;;;;;;6.35;4.63;;;18.70;99.90;;;;;;5092748;28;20036;-64
2023/07/07 04:27:44;;;;;;;6.55;4.82;;;18.80;99.90;;;;;;5092677;28;20398;-64
2023/07/07 04:30:11;;;;;;;6.22;4.90;;;18.90;99.90;;;;;;5092864;28;20379;-64
2023/07/07 04:32:39;;;;;;;8.40;5.80;;;19.10;99.90;;;;;;5092706;28;20090;-64
2023/07/07 04:35:05;;;;;;;11.00;5.05;;;19.20;99.90;;;;;;5092913;28;20430;-64
2023/07/07 04:37:31;;;;;;;7.38;4.85;;;19.20;99.90;;;;;;5092505;28;20020;-64
2023/07/07 04:39:57;;;;;;;7.15;4.95;;;19.30;99.90;;;;;;5092504;28;20143;-65
2023/07/07 04:42:23;;;;;;;6.22;4.63;;;19.30;99.90;;;;;;5092821;28;20487;-64
2023/07/07 04:44:49;;;;;;;7.88;4.50;;;19.30;99.90;;;;;;5091564;28;20020;-64
2023/07/07 04:47:14;;;;;;;6.95;4.50;;;19.30;99.90;;;;;;5091528;28;20032;-64
2023/07/07 04:49:40;;;;;;;6.80;4.90;;;19.20;99.90;;;;;;5090946;28;20028;-65
2023/07/07 04:52:06;;;;;;;6.00;4.43;;;19.20;99.90;;;;;;5092283;28;20024;-64
2023/07/07 04:54:33;;;;;;;7.32;4.90;;;19.20;99.90;;;;;;5092521;28;20095;-64
2023/07/07 04:56:59;;;;;;;6.22;4.60;;;19.10;99.90;;;;;;5092351;28;20020;-64
2023/07/07 04:59:26;;;;;;;6.60;4.82;;;19.00;99.90;;;;;;5091982;28;20375;-63
2023/07/07 05:01:52;;;;;;;9.30;4.85;;;18.90;99.90;;;;;;5091515;28;20059;-64
2023/07/07 05:04:17;;;;;;;8.82;4.93;;;18.80;99.90;;;;;;5092268;28;20093;-64
2023/07/07 05:06:43;;;;;;;6.30;4.85;;;18.80;99.90;;;;;;5091826;28;20032;-64
2023/07/07 05:09:11;;;;;;;7.22;4.65;;;18.70;99.90;;;;;;5092220;28;20052;-65
2023/07/07 05:11:37;;;;;;;8.00;4.72;;;18.70;99.90;;;;;;5092256;28;20081;-65
2023/07/07 05:14:03;;;;;;;7.10;4.55;;;18.70;99.90;;;;;;5091671;28;20078;-65
2023/07/07 05:16:34;;;;;;;8.38;4.80;;;18.70;99.90;;;;;;5091610;28;20032;-64
2023/07/07 05:19:00;;;;;;;7.32;4.85;;;18.70;99.90;;;;;;5091560;28;20028;-64
2023/07/07 05:21:26;;;;;;;7.30;4.40;;;18.60;99.90;;;;;;5091931;28;20039;-64
2023/07/07 05:23:53;;;;;;;7.10;4.72;;;18.70;99.90;;;;;;5091452;28;20465;-62
2023/07/07 05:26:27;;;;;;;8.55;4.53;;;18.70;99.90;;;;;;5091850;28;20391;-64
2023/07/07 05:28:53;;;;;;;8.38;4.60;;;18.70;99.90;;;;;;5091105;28;20047;-64
2023/07/07 05:31:20;;;;;;;7.72;4.97;;;18.70;99.90;;;;;;5091495;28;20521;-64
2023/07/07 05:33:46;;;;;;;6.40;5.15;;;18.80;99.90;;;;;;5091933;28;20114;-64
2023/07/07 05:36:12;;;;;;;9.25;5.10;;;18.80;99.90;;;;;;5091277;28;20112;-64
2023/07/07 05:38:41;;;;;;;5.93;5.07;;;18.80;99.90;;;;;;5091193;28;20036;-64
2023/07/07 05:41:08;;;;;;;8.23;5.13;;;18.80;99.90;;;;;;5091718;28;20032;-65
2023/07/07 05:43:35;;;;;;;8.10;5.40;;;19.00;99.90;;;;;;5091559;28;20430;-63
2023/07/07 05:46:03;;;;;;;12.02;5.75;;;19.20;99.90;;;;;;5091492;28;20028;-64
2023/07/07 05:48:29;;;;;;;6.55;5.00;;;19.30;99.90;;;;;;5091188;28;20442;-64
2023/07/07 05:50:58;;;;;;;7.05;5.63;;;19.60;99.90;;;;;;5091420;28;20111;-64
2023/07/07 05:53:24;;;;;;;8.52;5.30;;;19.80;99.90;;;;;;5091635;28;20077;-63
2023/07/07 05:55:50;;;;;;;6.80;5.40;;;19.90;99.90;;;;;;5091134;28;20051;-63
2023/07/07 05:58:17;;;;;;;7.05;5.70;;;20.10;99.90;;;;;;5091000;28;20086;-63
2023/07/07 06:00:43;;;;;;;7.47;6.78;;;20.10;99.90;;;;;;5091074;28;20073;-63
2023/07/07 06:03:09;;;;;;;8.52;7.72;;;20.20;99.90;;;;;;5091022;28;20402;-63
2023/07/07 06:05:35;;;;;;;8.30;6.72;;;20.30;99.90;;;;;;5091267;28;20085;-63
2023/07/07 06:08:04;;;;;;;7.00;5.78;;;20.40;99.90;;;;;;5091278;28;20460;-63
2023/07/07 06:10:30;;;;;;;6.38;5.72;;;20.50;99.90;;;;;;5091752;28;20027;-63
2023/07/07 06:12:55;;;;;;;9.85;5.72;;;20.50;99.90;;;;;;5090580;28;20032;-63
2023/07/07 06:15:21;;;;;;;7.88;4.90;;;20.50;99.90;;;;;;5090542;28;20031;-64
2023/07/07 06:17:47;;;;;;;6.22;4.85;;;20.40;99.90;;;;;;5091394;28;20044;-63
2023/07/07 06:20:14;;;;;;;6.00;4.68;;;20.30;99.90;;;;;;5091331;28;20028;-62
2023/07/07 06:22:40;;;;;;;6.97;5.10;;;20.30;99.90;;;;;;5091055;28;20525;-64
2023/07/07 06:25:06;;;;;;;5.85;5.10;;;20.30;99.90;;;;;;5090613;28;20025;-64
2023/07/07 06:27:32;;;;;;;6.10;5.20;;;20.30;99.90;;;;;;5090310;28;20117;-65
2023/07/07 06:29:58;;;;;;;7.00;5.03;;;20.30;99.90;;;;;;5089641;28;20032;-65
2023/07/07 06:32:23;;;;;;;5.57;4.60;;;20.30;99.90;;;;;;5090919;28;20030;-65
2023/07/07 06:34:49;;;;;;;9.35;5.00;;;20.30;99.90;;;;;;5090514;28;20036;-65
2023/07/07 06:37:16;;;;;;;6.40;4.80;;;20.40;99.90;;;;;;5091313;28;20024;-63
2023/07/07 06:39:41;;;;;;;6.05;4.80;;;20.40;99.90;;;;;;5090697;28;20036;-64
2023/07/07 06:42:09;;;;;;;5.25;4.43;;;20.40;99.90;;;;;;5090548;28;20032;-64
2023/07/07 06:44:38;;;;;;;6.80;4.70;;;20.50;99.90;;;;;;5090197;28;20028;-65
2023/07/07 06:47:16;;;;;;;8.90;4.70;;;20.60;99.90;;;;;;5091212;28;20036;-65
2023/07/07 06:49:42;;;;;;;6.57;4.95;;;20.70;99.90;;;;;;5090900;28;20028;-65
2023/07/07 06:52:08;;;;;;;7.45;5.13;;;20.70;99.90;;;;;;5090765;28;20027;-64
2023/07/07 06:54:33;;;;;;;7.25;5.38;;;20.90;99.90;;;;;;5090862;28;20044;-65
2023/07/07 06:56:59;;;;;;;8.77;4.90;;;20.90;99.90;;;;;;5090630;28;20390;-64
2023/07/07 06:59:25;;;;;;;5.82;4.40;;;21.00;99.90;;;;;;5090932;28;20024;-64
2023/07/07 07:01:51;;;;;;;5.82;4.88;;;21.00;99.90;;;;;;5090925;28;20449;-64
2023/07/07 07:04:16;;;;;;;5.28;4.78;;;21.10;99.90;;;;;;5090541;28;20050;-64
2023/07/07 07:06:43;;;;;;;5.18;4.65;;;21.20;99.90;;;;;;5091067;28;20031;-65
2023/07/07 07:09:09;;;;;;;6.53;4.72;;;21.30;99.90;;;;;;5090636;28;20387;-65
2023/07/07 07:11:35;;;;;;;6.88;5.07;;;21.30;99.90;;;;;;5090903;28;20024;-64
2023/07/07 07:14:00;;;;;;;5.38;4.88;;;21.50;99.90;;;;;;5093035;28;20040;-64
2023/07/07 07:16:26;;;;;;;5.07;4.45;;;21.60;99.90;;;;;;5094359;28;20448;-65
2023/07/07 07:18:52;;;;;;;5.47;4.97;;;21.70;99.90;;;;;;5094250;28;20406;-64
2023/07/07 07:21:18;;;;;;;5.30;4.80;;;21.90;99.90;;;;;;5094179;28;20099;-64
2023/07/07 07:23:43;;;;;;;5.15;4.65;;;22.00;99.90;;;;;;5094678;28;20059;-64
2023/07/07 07:26:09;;;;;;;7.35;5.25;;;22.10;99.90;;;;;;5094124;28;20031;-64
2023/07/07 07:28:35;;;;;;;5.10;4.60;;;22.20;99.90;;;;;;5093821;28;20522;-64
2023/07/07 07:31:00;;;;;;;5.55;4.70;;;22.30;99.90;;;;;;5094249;28;20094;-64
2023/07/07 07:33:26;;;;;;;5.85;4.50;;;22.50;99.90;;;;;;5094180;28;20028;-65
2023/07/07 07:35:52;;;;;;;6.43;4.93;;;22.50;99.90;;;;;;5094190;28;20103;-65
2023/07/07 07:38:20;;;;;;;5.38;4.88;;;22.30;99.90;;;;;;5094376;28;20027;-65
2023/07/07 07:40:46;;;;;;;6.63;4.68;;;22.30;99.90;;;;;;5093524;28;20405;-64
2023/07/07 07:43:12;;;;;;;7.25;5.13;;;22.20;99.90;;;;;;5093881;28;20526;-65
2023/07/07 07:45:38;;;;;;;6.70;4.70;;;22.30;99.90;;;;;;5093951;28;20145;-65
2023/07/07 07:48:04;;;;;;;6.65;4.70;;;22.40;99.90;;;;;;5093940;28;20043;-65
2023/07/07 07:50:31;;;;;;;5.32;4.60;;;22.40;99.90;;;;;;5093843;28;20024;-65
2023/07/07 07:52:57;;;;;;;6.35;4.88;;;22.50;99.90;;;;;;5093437;28;20032;-64
2023/07/07 07:55:23;;;;;;;6.78;5.10;;;22.60;99.90;;;;;;5093299;28;20030;-64
2023/07/07 07:57:49;;;;;;;61.78;14.05;;;22.70;99.90;;;;;;5093603;28;20032;-64
2023/07/07 08:00:15;;;;;;;20.73;7.40;;;22.90;99.90;;;;;;5093550;28;20019;-65
2023/07/07 08:02:40;;;;;;;12.52;6.00;;;22.90;99.90;;;;;;5093493;28;20035;-65
2023/07/07 08:05:07;;;;;;;7.70;5.40;;;23.00;99.90;;;;;;5093756;28;20028;-65
2023/07/07 08:07:33;;;;;;;8.45;5.15;;;23.00;99.90;;;;;;5093215;28;20040;-65
2023/07/07 08:09:59;;;;;;;8.05;5.03;;;23.20;99.90;;;;;;5093238;28;20020;-65
2023/07/07 08:12:25;;;;;;;5.43;4.40;;;23.20;99.90;;;;;;5093616;28;20109;-65
2023/07/07 08:14:51;;;;;;;7.05;4.82;;;23.30;99.90;;;;;;5093532;28;20494;-64
2023/07/07 08:17:17;;;;;;;6.22;4.70;;;23.40;99.90;;;;;;5093084;28;20023;-64
2023/07/07 08:19:44;;;;;;;8.07;4.60;;;23.50;99.90;;;;;;5093275;28;20028;-65
2023/07/07 08:22:15;;;;;;;6.28;4.30;;;23.60;99.90;;;;;;5093131;28;20084;-64
2023/07/07 08:24:47;;;;;;;5.13;4.53;;;23.80;99.90;;;;;;5092620;28;20063;-64
2023/07/07 08:27:14;;;;;;;9.05;4.85;;;24.00;99.90;;;;;;5092918;28;20040;-64
2023/07/07 08:29:41;;;;;;;6.75;5.10;;;24.20;99.90;;;;;;5092952;28;20444;-64
2023/07/07 08:32:09;;;;;;;7.43;4.88;;;24.40;99.90;;;;;;5092878;28;20024;-64
2023/07/07 08:34:35;;;;;;;8.05;5.60;;;24.60;99.90;;;;;;5091972;28;20403;-64
2023/07/07 08:37:00;;;;;;;5.85;4.63;;;24.50;99.90;;;;;;5092750;28;20039;-64
2023/07/07 08:39:28;;;;;;;5.78;5.15;;;24.50;99.90;;;;;;5092495;28;20028;-65
2023/07/07 08:42:00;;;;;;;7.35;5.32;;;24.60;99.90;;;;;;5093074;28;20608;-65
2023/07/07 08:44:28;;;;;;;9.48;8.02;;;24.70;99.90;;;;;;5092760;28;20040;-65
2023/07/07 08:46:54;;;;;;;10.13;9.23;;;24.90;99.90;;;;;;5092311;28;20433;-65
2023/07/07 08:49:51;;;;;;;7.70;6.40;;;25.00;99.90;;;;;;5092746;28;20043;-65
2023/07/07 08:52:44;;;;;;;5.55;5.05;;;25.20;99.90;;;;;;5092252;28;20496;-65
2023/07/07 08:55:43;;;;;;;6.05;4.75;;;25.30;99.90;;;;;;5084282;28;20063;-65
2023/07/07 08:58:35;;;;;;;5.65;4.75;;;25.20;99.90;;;;;;5092397;28;20028;-66
2023/07/07 09:01:35;;;;;;;4.53;4.13;;;25.10;99.90;;;;;;5029901;28;20119;-65
2023/07/07 09:04:33;;;;;;;6.55;4.78;;;25.20;99.90;;;;;;5029782;28;20053;-65
2023/07/07 09:07:13;;;;;;;5.68;4.03;;;25.20;99.90;;;;;;4951547;29;20067;-65
2023/07/07 09:10:26;;;;;;;5.88;4.43;;;25.30;99.90;;;;;;4951325;29;20071;-65
2023/07/07 09:12:59;;;;;;;7.22;4.28;;;25.40;99.90;;;;;;4894570;29;20119;-65
2023/07/07 09:15:29;;;;;;;4.88;4.10;;;25.50;99.90;;;;;;4895046;29;20512;-65
2023/07/07 09:18:16;;;;;;;5.25;4.40;;;25.70;99.90;;;;;;4894254;29;20616;-65
2023/07/07 09:20:45;;;;;;;5.95;4.57;;;25.70;99.90;;;;;;4879634;29;20088;-65
2023/07/07 09:23:17;;;;;;;7.68;4.45;;;25.70;99.90;;;;;;4894100;29;20048;-66
2023/07/07 09:25:50;;;;;;;6.95;4.13;;;25.80;99.90;;;;;;4894567;29;20050;-66
2023/07/07 09:28:17;;;;;;;4.40;3.97;;;25.90;99.90;;;;;;4894342;29;20052;-66
2023/07/07 09:30:47;;;;;;;4.88;3.83;;;26.10;99.90;;;;;;4894340;29;20112;-65
2023/07/07 09:33:16;;;;;;;5.38;3.95;;;26.30;99.90;;;;;;4894595;29;20519;-65
2023/07/07 09:35:50;;;;;;;6.07;4.22;;;26.40;99.90;;;;;;4893827;29;20076;-66
2023/07/07 09:39:01;;;;;;;5.20;4.10;;;26.40;99.90;;;;;;4946145;28;20039;-65
2023/07/07 09:41:36;;;;;;;5.60;3.67;;;26.40;99.90;;;;;;4971800;28;20062;-65
2023/07/07 09:44:23;;;;;;;5.85;4.07;;;26.60;99.90;;;;;;5009463;28;20032;-65
2023/07/07 09:47:26;;;;;;;5.07;4.18;;;26.70;99.90;;;;;;5044445;28;20072;-66
2023/07/07 09:50:25;;;;;;;6.97;3.80;;;26.90;99.90;;;;;;5071246;28;20037;-65
2023/07/07 09:53:14;;;;;;;5.05;4.20;;;27.00;99.90;;;;;;5008755;28;20283;-65
2023/07/07 09:55:41;;;;;;;6.45;4.20;;;27.10;99.90;;;;;;5009482;28;20499;-65
2023/07/07 09:58:31;;;;;;;6.70;4.13;;;27.30;99.90;;;;;;5009284;28;20041;-66
2023/07/07 10:01:01;;;;;;;5.40;4.20;;;27.30;99.90;;;;;;5009382;28;20037;-65
2023/07/07 10:03:48;;;;;;;4.88;4.10;;;27.50;99.90;;;;;;5009046;28;20117;-65
2023/07/07 10:06:25;;;;;;;5.57;3.95;;;27.50;99.90;;;;;;5008796;28;20033;-65
2023/07/07 10:08:51;;;;;;;5.25;4.07;;;27.60;99.90;;;;;;5009393;28;20464;-66
2023/07/07 10:11:22;;;;;;;7.05;3.85;;;27.60;99.90;;;;;;5009207;28;20064;-65
2023/07/07 10:13:50;;;;;;;6.22;4.30;;;27.60;99.90;;;;;;5009043;28;20030;-65
2023/07/07 10:16:54;;;;;;;4.38;3.80;;;27.70;99.90;;;;;;5009129;28;20037;-65
2023/07/07 10:19:20;;;;;;;7.28;4.47;;;27.80;99.90;;;;;;5028349;28;20029;-66
2023/07/07 10:21:47;;;;;;;5.65;4.70;;;28.00;99.90;;;;;;5028541;28;20044;-65
2023/07/07 10:24:14;;;;;;;6.25;4.13;;;28.00;99.90;;;;;;5028475;28;20507;-65
2023/07/07 10:26:46;;;;;;;6.00;4.38;;;27.90;99.90;;;;;;5028686;28;20064;-65
2023/07/07 10:29:22;;;;;;;5.03;4.00;;;28.10;99.90;;;;;;5048906;28;20044;-65
2023/07/07 10:31:49;;;;;;;5.57;3.70;;;28.10;99.90;;;;;;5070932;28;20047;-66
2023/07/07 10:34:23;;;;;;;5.43;4.22;;;28.20;99.90;;;;;;5070723;28;20135;-65
2023/07/07 10:36:53;;;;;;;4.35;3.75;;;28.30;99.90;;;;;;5070613;28;20024;-65
2023/07/07 10:39:18;;;;;;;5.03;3.70;;;28.40;99.90;;;;;;5070797;28;20052;-65
2023/07/07 10:41:44;;;;;;;5.40;3.95;;;28.50;99.90;;;;;;5071219;28;20114;-65
2023/07/07 10:44:10;;;;;;;5.28;4.00;;;28.60;99.90;;;;;;5070686;28;20028;-65
2023/07/07 10:46:35;;;;;;;5.40;4.13;;;28.60;99.90;;;;;;5070526;28;20071;-65
2023/07/07 10:49:03;;;;;;;5.80;4.10;;;28.60;99.90;;;;;;5073738;28;20064;-65
2023/07/07 10:51:37;;;;;;;5.93;4.10;;;28.50;99.90;;;;;;5074401;28;20055;-65
2023/07/07 10:54:24;;;;;;;4.40;3.90;;;28.50;99.90;;;;;;5074850;28;20024;-65
2023/07/07 10:56:54;;;;;;;4.88;4.32;;;28.40;99.90;;;;;;5074410;28;20617;-66
2023/07/07 10:59:58;;;;;;;4.57;4.13;;;28.30;99.90;;;;;;5074606;28;20024;-65
2023/07/07 11:02:45;;;;;;;4.75;4.20;;;28.40;99.90;;;;;;5074479;28;20029;-65
2023/07/07 11:05:11;;;;;;;5.13;3.92;;;28.50;99.90;;;;;;5074446;28;20036;-65
2023/07/07 11:08:15;;;;;;;5.15;3.92;;;28.70;99.90;;;;;;5072901;28;20410;-65
2023/07/07 11:10:47;;;;;;;4.82;3.97;;;29.10;99.90;;;;;;5074132;28;20534;-65
2023/07/07 11:13:31;;;;;;;7.00;4.30;;;29.30;99.90;;;;;;5074578;28;20028;-65
2023/07/07 11:16:37;;;;;;;5.18;4.10;;;29.50;99.90;;;;;;5074187;28;20445;-65
2023/07/07 11:19:12;;;;;;;5.63;4.40;;;29.60;99.90;;;;;;5091098;28;20024;-65
2023/07/07 11:22:04;;;;;;;5.63;4.15;;;29.80;99.90;;;;;;5094409;28;20035;-65
2023/07/07 11:24:37;;;;;;;5.38;4.45;;;30.00;99.90;;;;;;5094231;28;20044;-65
2023/07/07 11:27:17;;;;;;;7.80;4.20;;;30.00;99.90;;;;;;5094332;28;20390;-65
2023/07/07 11:30:02;;;;;;;6.30;4.20;;;30.10;99.90;;;;;;5094612;28;20269;-65
2023/07/07 11:32:56;;;;;;;5.07;3.97;;;30.20;99.90;;;;;;5094103;28;20023;-65
2023/07/07 11:35:51;;;;;;;4.45;3.97;;;30.30;99.90;;;;;;5031543;28;20080;-65
2023/07/07 11:38:48;;;;;;;5.43;4.05;;;30.40;99.90;;;;;;5031621;28;20121;-65
2023/07/07 11:41:55;;;;;;;4.43;3.55;;;30.50;99.90;;;;;;5031872;28;20036;-65
2023/07/07 11:44:26;;;;;;;4.68;4.28;;;30.40;99.90;;;;;;5031456;28;20416;-65
2023/07/07 11:47:01;;;;;;;5.57;4.00;;;30.50;99.90;;;;;;5031103;28;20084;-65
2023/07/07 11:49:47;;;;;;;4.82;4.03;;;30.50;99.90;;;;;;5030965;28;20048;-64
2023/07/07 11:52:25;;;;;;;5.22;3.67;;;30.70;99.90;;;;;;5031209;28;20037;-65
2023/07/07 11:54:59;;;;;;;5.63;3.78;;;30.70;99.90;;;;;;5031516;28;20069;-65
2023/07/07 11:57:40;;;;;;;5.35;4.05;;;30.80;99.90;;;;;;5031399;28;20519;-65
2023/07/07 12:00:18;;;;;;;8.68;4.00;;;30.90;99.90;;;;;;5030564;28;20041;-65
2023/07/07 12:03:17;;;;;;;5.53;3.80;;;31.00;99.90;;;;;;5030732;28;20400;-65
2023/07/07 12:05:46;;;;;;;5.18;3.92;;;31.00;99.90;;;;;;5031421;28;20022;-65
2023/07/07 12:08:19;;;;;;;5.22;4.00;;;31.30;99.90;;;;;;5030534;28;20087;-65
2023/07/07 12:10:56;;;;;;;4.95;3.60;;;31.10;99.90;;;;;;5031236;28;20021;-65
2023/07/07 12:13:37;;;;;;;4.95;3.75;;;31.10;99.90;;;;;;5087871;28;20044;-65
2023/07/07 12:16:15;;;;;;;5.65;3.95;;;31.20;99.90;;;;;;5093309;28;20027;-65
2023/07/07 12:18:46;;;;;;;4.60;3.65;;;31.30;99.90;;;;;;5093083;28;20387;-65
2023/07/07 12:21:27;;;;;;;4.97;3.75;;;31.50;99.90;;;;;;5093247;28;20023;-65
2023/07/07 12:24:02;;;;;;;6.80;3.90;;;31.70;99.90;;;;;;5093431;28;20471;-65
2023/07/07 12:26:35;;;;;;;5.20;3.80;;;31.80;99.90;;;;;;5093191;28;20038;-65
2023/07/07 12:29:03;;;;;;;6.07;4.00;;;31.70;99.90;;;;;;5092948;28;20502;-65
2023/07/07 12:31:29;;;;;;;7.50;3.85;;;31.70;99.90;;;;;;5092626;28;20027;-65
2023/07/07 12:33:55;;;;;;;5.43;3.50;;;31.70;99.90;;;;;;5092801;28;20032;-65
2023/07/07 12:36:31;;;;;;;4.07;3.67;;;31.80;99.90;;;;;;5092943;28;20161;-65
2023/07/07 12:39:03;;;;;;;4.05;3.55;;;32.00;99.90;;;;;;5092789;28;20032;-65
2023/07/07 12:41:29;;;;;;;5.20;3.72;;;32.10;99.90;;;;;;5092769;28;20024;-65
2023/07/07 12:44:03;;;;;;;5.95;3.80;;;32.30;99.90;;;;;;5092501;28;20032;-65
2023/07/07 12:46:33;;;;;;;4.93;3.60;;;32.50;99.90;;;;;;5092591;28;20020;-65
2023/07/07 12:49:28;;;;;;;3.95;3.50;;;32.70;99.90;;;;;;5092968;28;20502;-65
2023/07/07 12:51:58;;;;;;;4.75;3.25;;;32.80;99.90;;;;;;5092713;28;20062;-65
2023/07/07 12:54:33;;;;;;;5.05;3.65;;;32.60;99.90;;;;;;5092551;28;20105;-66
2023/07/07 12:57:19;;;;;;;4.28;3.53;;;32.70;99.90;;;;;;5092715;28;20031;-65
2023/07/07 12:59:45;;;;;;;5.38;3.38;;;32.70;99.90;;;;;;5092173;28;20035;-66
2023/07/07 13:02:18;;;;;;;5.88;3.78;;;32.80;99.90;;;;;;5092742;28;20025;-66
2023/07/07 13:04:48;;;;;;;;;;;33.00;99.90;;;;;;5092815;28;20174;-66
2023/07/07 13:07:20;;;;;;;6.22;3.47;;;32.90;99.90;;;;;;5092340;28;19914;-65
2023/07/07 13:09:48;;;;;;;5.70;3.50;;;33.00;99.90;;;;;;5092045;28;20055;-65